createdAt,value
2022-12-15T00:01:22.459Z,1.25
2022-12-15T00:06:44.514Z,0.50
2022-12-15T00:12:06.845Z,0.75
2022-12-15T00:17:29.323Z,0.75
2022-12-15T00:22:51.445Z,0.00
2022-12-15T00:28:16.272Z,2.00
2022-12-15T00:33:38.497Z,1.25
2022-12-15T00:38:45.668Z,4.00
2022-12-15T00:43:50.093Z,1.75
2022-12-15T00:48:54.358Z,2.00
2022-12-15T00:54:18.138Z,4.00
2022-12-15T00:59:40.517Z,5.00
2022-12-15T01:05:02.542Z,9.25
2022-12-15T01:10:24.668Z,9.50
2022-12-15T01:15:47.462Z,7.75
2022-12-15T01:21:02.115Z,11.00
2022-12-15T01:26:06.677Z,7.75
2022-12-15T01:31:12.937Z,10.00
2022-12-15T01:36:17.071Z,10.50
2022-12-15T01:41:21.106Z,7.25
2022-12-15T01:46:27.295Z,10.00
2022-12-15T01:51:39.163Z,10.00
2022-12-15T01:56:48.017Z,7.00
2022-12-15T02:01:52.347Z,8.00
2022-12-15T02:06:56.551Z,9.00
2022-12-15T02:12:21.855Z,13.75
2022-12-15T02:17:31.760Z,18.75
2022-12-15T02:22:38.716Z,30.00
2022-12-15T02:28:11.560Z,23.50
2022-12-15T02:33:18.533Z,19.25
2022-12-15T02:38:36.729Z,20.75
2022-12-15T02:43:40.816Z,18.25
2022-12-15T02:48:47.906Z,20.00
2022-12-15T02:54:00.718Z,12.00
2022-12-15T02:59:15.347Z,18.50
2022-12-15T03:04:20.520Z,14.50
2022-12-15T03:09:25.548Z,12.50
2022-12-15T03:14:29.793Z,15.00
2022-12-15T03:19:34.085Z,12.00
2022-12-15T03:24:38.737Z,11.25
2022-12-15T03:29:43.295Z,12.00
2022-12-15T03:34:47.903Z,8.75
2022-12-15T03:39:52.685Z,11.50
2022-12-15T03:44:56.714Z,8.75
2022-12-15T03:50:01.028Z,11.50
2022-12-15T03:55:06.265Z,10.75
2022-12-15T04:00:16.361Z,9.00
2022-12-15T04:05:26.951Z,12.00
2022-12-15T04:10:34.744Z,11.75
2022-12-15T04:15:41.068Z,14.25
2022-12-15T04:20:45.722Z,13.00
2022-12-15T04:26:13.052Z,9.50
2022-12-15T04:31:38.161Z,6.50
2022-12-15T04:37:01.917Z,8.50
2022-12-15T04:42:25.028Z,9.25
2022-12-15T04:47:48.754Z,5.50
2022-12-15T04:53:11.735Z,10.00
2022-12-15T04:58:34.597Z,6.25
2022-12-15T05:03:57.555Z,5.00
2022-12-15T05:09:21.025Z,6.25
2022-12-15T05:14:43.225Z,8.25
2022-12-15T05:20:07.827Z,7.00
2022-12-15T05:25:30.705Z,3.00
2022-12-15T05:30:53.712Z,9.00
2022-12-15T05:35:59.542Z,5.50
2022-12-15T05:41:03.970Z,7.00
2022-12-15T05:46:08.916Z,5.50
2022-12-15T05:51:13.927Z,5.75
2022-12-15T05:56:18.628Z,5.25
2022-12-15T06:01:23.752Z,5.00
2022-12-15T06:06:28.412Z,4.00
2022-12-15T06:11:33.067Z,3.00
2022-12-15T06:16:44.221Z,9.75
2022-12-15T06:21:55.989Z,3.00
2022-12-15T06:27:04.168Z,5.00
2022-12-15T06:32:08.778Z,4.00
2022-12-15T06:37:13.817Z,4.00
2022-12-15T06:42:18.509Z,3.75
2022-12-15T06:47:23.082Z,4.00
2022-12-15T06:52:27.775Z,2.75
2022-12-15T06:57:32.444Z,3.50
2022-12-15T07:02:37.423Z,1.75
2022-12-15T07:07:42.187Z,2.50
2022-12-15T07:12:46.879Z,2.00
2022-12-15T07:17:52.455Z,2.50
2022-12-15T07:22:57.152Z,3.00
2022-12-15T07:28:01.846Z,2.25
2022-12-15T07:33:06.787Z,1.75
2022-12-15T07:38:11.635Z,1.25
2022-12-15T07:43:16.141Z,3.75
2022-12-15T07:48:21.147Z,2.75
2022-12-15T07:53:29.585Z,2.00
2022-12-15T07:58:34.897Z,2.00
2022-12-15T08:03:40.280Z,0.25
2022-12-15T08:08:50.744Z,1.00
2022-12-15T08:14:04.365Z,1.75
2022-12-15T08:19:12.736Z,1.00
2022-12-15T08:24:18.073Z,0.75
2022-12-15T08:29:50.021Z,0.25
2022-12-15T08:34:49.383Z,1.25
2022-12-15T08:39:54.215Z,0.75
2022-12-15T08:44:58.969Z,1.00
2022-12-15T08:50:03.852Z,0.50
2022-12-15T08:55:08.801Z,1.00
2022-12-15T09:00:13.842Z,1.00
2022-12-15T09:05:18.500Z,2.50
2022-12-15T09:10:23.350Z,2.75
2022-12-15T09:15:59.793Z,4.00
2022-12-15T09:20:52.484Z,4.25
2022-12-15T09:26:03.796Z,3.00
2022-12-15T09:31:23.287Z,5.25
2022-12-15T09:36:28.980Z,4.75
2022-12-15T09:41:34.248Z,6.75
2022-12-15T09:46:50.099Z,8.00
2022-12-15T09:51:59.592Z,6.75
2022-12-15T09:57:13.253Z,7.75
2022-12-15T10:02:37.017Z,9.00
2022-12-15T10:07:45.233Z,9.50
2022-12-15T10:13:01.108Z,10.25
2022-12-15T10:18:13.196Z,10.00
2022-12-15T10:23:18.936Z,8.75
2022-12-15T10:28:26.369Z,8.25
2022-12-15T10:33:47.115Z,8.75
2022-12-15T10:38:54.796Z,11.25
2022-12-15T10:43:59.001Z,10.25
2022-12-15T10:49:26.523Z,14.25
2022-12-15T10:54:46.709Z,11.25
2022-12-15T10:59:53.762Z,11.00
2022-12-15T11:05:03.476Z,15.75
2022-12-15T11:10:16.943Z,14.00
2022-12-15T11:15:26.955Z,17.50
2022-12-15T11:20:37.143Z,14.00
2022-12-15T11:25:44.293Z,15.25
2022-12-15T11:30:57.614Z,12.75
2022-12-15T11:36:09.187Z,14.00
2022-12-15T11:41:36.196Z,11.75
2022-12-15T11:46:49.431Z,13.50
2022-12-15T11:52:00.316Z,12.75
2022-12-15T11:57:04.676Z,10.00
2022-12-15T12:02:11.959Z,9.00
2022-12-15T12:07:42.326Z,17.75
2022-12-15T12:12:56.428Z,18.25
2022-12-15T12:18:07.038Z,22.75
2022-12-15T12:23:20.815Z,16.00
2022-12-15T12:28:30.146Z,16.75
2022-12-15T12:33:35.276Z,18.25
2022-12-15T12:38:50.595Z,16.50
2022-12-15T12:44:42.616Z,13.75
2022-12-15T12:49:53.262Z,17.00
2022-12-15T12:55:11.079Z,17.75
2022-12-15T13:00:20.047Z,14.50
2022-12-15T13:05:24.448Z,16.00
2022-12-15T13:10:30.293Z,19.75
2022-12-15T13:15:44.304Z,20.50
2022-12-15T13:20:52.524Z,20.25
2022-12-15T13:26:00.245Z,23.75
2022-12-15T13:31:23.133Z,22.75
2022-12-15T13:36:39.973Z,23.50
2022-12-15T13:42:32.674Z,19.75
2022-12-15T13:47:20.806Z,14.25
2022-12-15T13:52:44.235Z,22.25
2022-12-15T13:58:02.664Z,24.50
2022-12-15T14:03:09.463Z,17.25
2022-12-15T14:08:17.524Z,18.00
2022-12-15T14:13:26.787Z,16.00
2022-12-15T14:18:33.128Z,15.75
2022-12-15T14:23:48.647Z,19.50
2022-12-15T14:29:10.670Z,16.00
2022-12-15T14:34:38.429Z,18.00
2022-12-15T14:39:46.843Z,20.00
2022-12-15T14:44:58.497Z,15.50
2022-12-15T14:50:04.152Z,16.50
2022-12-15T14:55:28.679Z,13.50
2022-12-15T15:00:35.732Z,17.25
2022-12-15T15:05:41.869Z,18.25
2022-12-15T15:10:47.274Z,16.75
2022-12-15T15:16:02.295Z,11.75
2022-12-15T15:21:08.774Z,17.25
2022-12-15T15:26:18.294Z,14.50
2022-12-15T15:31:35.284Z,14.00
2022-12-15T15:36:45.694Z,15.50
2022-12-15T15:41:51.454Z,12.25
2022-12-15T15:46:56.608Z,14.75
2022-12-15T15:52:01.273Z,11.25
2022-12-15T15:57:05.906Z,12.50
2022-12-15T16:02:12.762Z,12.75
2022-12-15T16:07:22.274Z,10.50
2022-12-15T16:12:26.574Z,9.50
2022-12-15T16:17:31.062Z,14.00
2022-12-15T16:22:35.904Z,13.50
2022-12-15T16:27:40.371Z,13.50
2022-12-15T16:32:45.045Z,17.50
2022-12-15T16:37:50.607Z,15.00
2022-12-15T16:43:02.081Z,15.25
2022-12-15T16:48:06.581Z,15.25
2022-12-15T16:53:23.048Z,20.50
2022-12-15T16:58:29.270Z,15.00
2022-12-15T17:03:34.218Z,17.75
2022-12-15T17:08:47.028Z,15.25
2022-12-15T17:13:52.552Z,16.50
2022-12-15T17:18:57.181Z,14.25
2022-12-15T17:24:05.465Z,13.25
2022-12-15T17:29:14.491Z,18.25
2022-12-15T17:34:44.990Z,17.75
2022-12-15T17:39:52.219Z,17.50
2022-12-15T17:44:56.861Z,24.25
2022-12-15T17:50:01.465Z,15.25
2022-12-15T17:55:06.417Z,10.75
2022-12-15T18:00:31.050Z,14.50
2022-12-15T18:05:35.702Z,18.00
2022-12-15T18:10:42.170Z,12.25
2022-12-15T18:15:47.825Z,13.00
2022-12-15T18:20:53.839Z,12.50
2022-12-15T18:26:03.206Z,13.50
2022-12-15T18:31:29.723Z,12.00
2022-12-15T18:36:34.238Z,12.25
2022-12-15T18:41:38.860Z,10.75
2022-12-15T18:46:47.798Z,11.00
2022-12-15T18:51:52.809Z,10.00
2022-12-15T18:56:57.349Z,10.00
2022-12-15T19:02:02.086Z,9.25
2022-12-15T19:07:07.978Z,7.50
2022-12-15T19:12:21.867Z,9.00
2022-12-15T19:17:44.530Z,7.00
2022-12-15T19:22:49.824Z,5.75
2022-12-15T19:27:59.913Z,5.75
2022-12-15T19:33:04.525Z,5.50
2022-12-15T19:38:09.354Z,3.00
2022-12-15T19:43:16.718Z,4.00
2022-12-15T19:48:23.802Z,3.50
2022-12-15T19:53:32.787Z,6.50
2022-12-15T19:58:38.068Z,2.75
2022-12-15T20:03:43.736Z,2.00
2022-12-15T20:08:49.643Z,5.00
2022-12-15T20:13:54.215Z,4.75
2022-12-15T20:18:59.083Z,2.25
2022-12-15T20:24:08.512Z,3.00
2022-12-15T20:29:38.894Z,3.00
2022-12-15T20:34:43.171Z,2.50
2022-12-15T20:39:48.656Z,3.75
2022-12-15T20:44:54.588Z,3.75
2022-12-15T20:49:58.617Z,1.00
2022-12-15T20:55:05.485Z,2.75
2022-12-15T21:00:10.181Z,1.75
2022-12-15T21:05:19.265Z,0.50
2022-12-15T21:10:23.618Z,2.25
2022-12-15T21:15:28.226Z,2.00
2022-12-15T21:20:33.427Z,3.50
2022-12-15T21:25:39.274Z,1.50
2022-12-15T21:30:43.990Z,2.50
2022-12-15T21:35:49.158Z,1.75
2022-12-15T21:40:57.794Z,1.00
2022-12-15T21:46:04.367Z,2.00
2022-12-15T21:51:12.020Z,1.00
2022-12-15T21:56:17.778Z,1.00
2022-12-15T22:01:23.636Z,1.25
2022-12-15T22:06:29.121Z,0.00
2022-12-15T22:11:33.963Z,1.00
2022-12-15T22:16:38.735Z,0.50
2022-12-15T22:21:43.533Z,0.00
2022-12-15T22:26:49.055Z,0.00
2022-12-15T22:31:55.014Z,1.00
2022-12-15T22:36:59.766Z,1.50
2022-12-15T22:42:05.832Z,1.00
2022-12-15T22:47:12.228Z,2.00
2022-12-15T22:52:19.029Z,0.25
2022-12-15T22:57:28.066Z,1.50
2022-12-15T23:02:38.417Z,1.00
2022-12-15T23:07:43.439Z,1.00
2022-12-15T23:12:48.427Z,1.25
2022-12-15T23:17:52.984Z,1.75
2022-12-15T23:23:00.489Z,1.00
2022-12-15T23:28:05.199Z,1.00
2022-12-15T23:33:09.746Z,2.00
2022-12-15T23:38:14.599Z,1.00
2022-12-15T23:43:19.590Z,1.00
2022-12-15T23:48:24.393Z,3.00
2022-12-15T23:53:29.338Z,1.75
2022-12-15T23:58:34.502Z,1.00
